Time;durP1;ratioP1;P1;durP2;ratioP2;P2;SDS_P1;SDS_P2;PMS_P1;PMS_P2;Temp;Humidity;BMP_temperature;BMP_pressure;BME280_temperature;BME280_humidity;BME280_pressure;Samples;Min_cycle;Max_cycle;Signal;HPM_P1;HPM_P2
2022/08/21 00:01:53;;;;;;;4.40;4.00;;;20.60;99.90;;;;;;10359256;28;20221;-80
2022/08/21 00:07:15;;;;;;;3.95;3.65;;;20.60;99.90;;;;;;10320278;28;20202;-78
2022/08/21 00:12:37;;;;;;;4.20;3.80;;;20.50;99.90;;;;;;10318588;28;20225;-77
2022/08/21 00:17:59;;;;;;;3.90;3.60;;;20.50;99.90;;;;;;10301019;28;20213;-80
2022/08/21 00:23:21;;;;;;;5.00;3.47;;;20.50;99.90;;;;;;10316149;28;20213;-77
2022/08/21 00:28:42;;;;;;;3.97;3.67;;;20.50;99.90;;;;;;10316626;28;20289;-77
2022/08/21 00:34:04;;;;;;;3.80;3.50;;;20.60;99.90;;;;;;10316670;28;20230;-80
2022/08/21 00:39:25;;;;;;;4.18;3.60;;;20.60;99.90;;;;;;10317341;28;20234;-81
2022/08/21 00:44:50;;;;;;;3.90;3.60;;;20.70;99.90;;;;;;10302780;28;20225;-81
2022/08/21 00:50:12;;;;;;;6.18;4.53;;;20.70;99.90;;;;;;10302597;28;20199;-80
2022/08/21 00:55:36;;;;;;;4.60;4.20;;;20.60;99.90;;;;;;10334798;28;20197;-82
2022/08/21 01:01:01;;;;;;;4.65;4.25;;;20.60;99.90;;;;;;10355730;28;20240;-79
2022/08/21 01:06:25;;;;;;;4.45;4.15;;;20.60;99.90;;;;;;10324785;28;20458;-77
2022/08/21 01:11:47;;;;;;;4.50;4.10;;;20.60;99.90;;;;;;10316138;28;20501;-82
2022/08/21 01:17:11;;;;;;;4.30;3.90;;;20.70;99.90;;;;;;10316288;28;20420;-82
2022/08/21 01:22:32;;;;;;;4.45;4.07;;;20.60;99.90;;;;;;10315799;28;20226;-82
2022/08/21 01:27:54;;;;;;;5.90;5.15;;;20.70;99.90;;;;;;10315578;28;20195;-82
2022/08/21 01:33:17;;;;;;;5.70;5.20;;;20.70;99.90;;;;;;10389304;28;20237;-82
2022/08/21 01:38:39;;;;;;;5.00;4.63;;;20.60;99.90;;;;;;10396405;28;20224;-78
2022/08/21 01:44:00;;;;;;;6.15;5.55;;;20.60;99.90;;;;;;10396435;28;20245;-76
2022/08/21 01:49:22;;;;;;;9.73;7.97;;;20.60;99.90;;;;;;10396180;28;20268;-79
2022/08/21 01:54:43;;;;;;;8.20;7.20;;;20.50;99.90;;;;;;10335659;28;20280;-80
2022/08/21 02:00:08;;;;;;;9.32;7.15;;;20.50;99.90;;;;;;10355248;28;20224;-78
2022/08/21 02:05:32;;;;;;;8.35;7.63;;;20.50;99.90;;;;;;10316174;28;20206;-79
2022/08/21 02:10:53;;;;;;;13.43;10.20;;;20.50;99.90;;;;;;10314698;28;20198;-78
2022/08/21 02:16:15;;;;;;;13.10;11.30;;;20.40;99.90;;;;;;10314553;28;20201;-77
2022/08/21 02:21:37;;;;;;;11.48;9.63;;;20.30;99.90;;;;;;10313426;28;20273;-77
2022/08/21 02:26:58;;;;;;;10.60;9.50;;;20.30;99.90;;;;;;10329641;28;20206;-78
2022/08/21 02:32:21;;;;;;;10.73;9.73;;;20.30;99.90;;;;;;10337238;28;20312;-78
2022/08/21 02:37:49;;;;;;;10.30;9.20;;;20.30;99.90;;;;;;10377405;28;20491;-79
2022/08/21 02:43:10;;;;;;;10.90;8.68;;;20.30;99.90;;;;;;10378980;28;20233;-77
2022/08/21 02:48:33;;;;;;;8.23;7.43;;;20.30;99.90;;;;;;10385110;28;20209;-78
2022/08/21 02:53:55;;;;;;;9.10;7.70;;;20.30;99.90;;;;;;10366160;28;20201;-78
2022/08/21 02:59:16;;;;;;;9.25;7.80;;;20.30;99.90;;;;;;10361589;28;20233;-78
2022/08/21 03:04:38;;;;;;;7.20;6.57;;;20.30;99.90;;;;;;10343963;28;20198;-78
2022/08/21 03:10:01;;;;;;;7.85;7.05;;;20.20;99.90;;;;;;10336065;28;20206;-77
2022/08/21 03:15:23;;;;;;;7.05;6.35;;;20.20;99.90;;;;;;10320902;28;20197;-77
2022/08/21 03:20:46;;;;;;;6.47;5.85;;;20.20;99.90;;;;;;10305713;28;20234;-77
2022/08/21 03:26:08;;;;;;;6.60;5.53;;;20.10;99.90;;;;;;10335336;28;20375;-77
2022/08/21 03:31:31;;;;;;;5.75;5.13;;;20.10;99.90;;;;;;10362050;28;20543;-77
2022/08/21 03:36:53;;;;;;;6.63;5.07;;;20.10;99.90;;;;;;10400728;28;20423;-77
2022/08/21 03:42:14;;;;;;;5.63;5.13;;;20.10;99.90;;;;;;10385871;28;20275;-76
2022/08/21 03:47:36;;;;;;;5.53;5.03;;;20.10;99.90;;;;;;10400503;28;20377;-78
2022/08/21 03:52:58;;;;;;;5.55;4.85;;;20.10;99.90;;;;;;10374454;28;20209;-77
2022/08/21 03:58:23;;;;;;;7.43;5.40;;;20.10;99.90;;;;;;10340979;28;20229;-77
2022/08/21 04:03:45;;;;;;;5.13;4.65;;;20.10;99.90;;;;;;10341388;28;20196;-76
2022/08/21 04:09:07;;;;;;;4.75;4.35;;;20.10;99.90;;;;;;10358935;28;20236;-77
2022/08/21 04:14:28;;;;;;;4.85;4.03;;;20.10;99.90;;;;;;10357976;28;20432;-77
2022/08/21 04:19:49;;;;;;;4.55;4.25;;;20.10;99.90;;;;;;10358758;28;20231;-76
2022/08/21 04:25:14;;;;;;;6.72;4.45;;;20.10;99.90;;;;;;10358670;28;20198;-76
2022/08/21 04:30:36;;;;;;;4.68;3.97;;;20.10;99.90;;;;;;10369915;28;20240;-77
2022/08/21 04:35:57;;;;;;;4.45;4.05;;;20.10;99.90;;;;;;10367605;28;20259;-77
2022/08/21 04:41:19;;;;;;;3.80;3.50;;;20.10;99.90;;;;;;10398493;28;20247;-76
2022/08/21 04:46:40;;;;;;;4.80;4.35;;;20.20;99.90;;;;;;10380848;28;20209;-77
2022/08/21 04:52:01;;;;;;;5.97;4.55;;;20.20;99.90;;;;;;10388219;28;20204;-77
2022/08/21 04:57:23;;;;;;;4.85;4.35;;;20.20;99.90;;;;;;10350310;28;20202;-76
2022/08/21 05:02:47;;;;;;;3.85;3.45;;;20.20;99.90;;;;;;10353555;28;20233;-76
2022/08/21 05:08:14;;;;;;;4.28;3.88;;;20.20;99.90;;;;;;10315600;28;20198;-76
2022/08/21 05:13:36;;;;;;;5.55;3.92;;;20.20;99.90;;;;;;10331614;28;20225;-77
2022/08/21 05:18:58;;;;;;;5.07;4.07;;;20.20;99.90;;;;;;10316052;28;20389;-77
2022/08/21 05:24:19;;;;;;;5.25;4.68;;;20.20;99.90;;;;;;10315849;28;20190;-77
2022/08/21 05:29:40;;;;;;;7.10;4.45;;;20.20;99.90;;;;;;10328036;28;20197;-76
2022/08/21 05:35:06;;;;;;;4.30;3.90;;;20.20;99.90;;;;;;10396583;28;20231;-76
2022/08/21 05:40:28;;;;;;;8.13;3.10;;;20.20;99.90;;;;;;10396124;28;20528;-78
2022/08/21 05:45:49;;;;;;;3.97;3.50;;;20.20;99.90;;;;;;10378570;28;20222;-77
2022/08/21 05:51:14;;;;;;;5.45;3.90;;;20.20;99.90;;;;;;10395987;28;20235;-76
2022/08/21 05:56:35;;;;;;;4.90;3.78;;;20.20;99.90;;;;;;10355044;28;20201;-76
2022/08/21 06:01:57;;;;;;;3.90;3.50;;;20.20;99.90;;;;;;10353771;28;20248;-77
2022/08/21 06:07:19;;;;;;;5.05;4.25;;;20.20;99.90;;;;;;10313931;28;20262;-76
2022/08/21 06:12:41;;;;;;;4.28;3.88;;;20.20;99.90;;;;;;10329891;28;20213;-76
2022/08/21 06:18:03;;;;;;;4.10;3.40;;;20.10;99.90;;;;;;10315865;28;20186;-77
2022/08/21 06:23:24;;;;;;;3.35;3.03;;;20.10;99.90;;;;;;10321794;28;20233;-77
2022/08/21 06:28:46;;;;;;;4.03;2.78;;;20.20;99.90;;;;;;10321517;28;20242;-76
2022/08/21 06:34:08;;;;;;;2.95;2.65;;;20.20;99.90;;;;;;10305226;28;20537;-77
2022/08/21 06:39:29;;;;;;;3.97;2.78;;;20.30;99.90;;;;;;10307799;28;20273;-77
2022/08/21 06:44:51;;;;;;;6.93;2.70;;;20.30;99.90;;;;;;10307840;28;20198;-77
2022/08/21 06:50:12;;;;;;;3.83;2.65;;;20.30;99.90;;;;;;10320997;28;20217;-77
2022/08/21 06:55:34;;;;;;;3.35;2.67;;;20.30;99.90;;;;;;10340624;28;20228;-77
2022/08/21 07:00:55;;;;;;;5.03;3.15;;;20.20;99.90;;;;;;10360584;28;20535;-77
2022/08/21 07:06:20;;;;;;;4.38;2.80;;;20.30;99.90;;;;;;10330582;28;20194;-76
2022/08/21 07:11:44;;;;;;;3.67;3.00;;;20.20;99.90;;;;;;10320963;28;20517;-77
2022/08/21 07:17:05;;;;;;;2.90;2.58;;;20.20;99.90;;;;;;10321140;28;20246;-76
2022/08/21 07:22:27;;;;;;;3.42;2.72;;;20.20;99.90;;;;;;10335782;28;20225;-77
2022/08/21 07:27:48;;;;;;;2.47;2.30;;;20.10;99.90;;;;;;10320424;28;20261;-81
2022/08/21 07:33:10;;;;;;;2.88;2.63;;;20.10;99.90;;;;;;10389329;28;20239;-80
2022/08/21 07:38:31;;;;;;;6.47;3.10;;;20.10;99.90;;;;;;10383759;28;20209;-79
2022/08/21 07:43:53;;;;;;;3.70;3.10;;;20.10;99.90;;;;;;10400767;28;20225;-79
2022/08/21 07:49:15;;;;;;;2.80;2.38;;;20.00;99.90;;;;;;10356219;28;20369;-81
2022/08/21 07:54:36;;;;;;;2.97;2.70;;;20.00;99.90;;;;;;10341649;28;20296;-79
2022/08/21 07:59:58;;;;;;;4.85;2.78;;;20.00;99.90;;;;;;10359728;28;20247;-78
2022/08/21 08:05:23;;;;;;;3.72;2.80;;;20.00;99.90;;;;;;10336600;28;20493;-78
2022/08/21 08:10:45;;;;;;;3.08;2.40;;;20.00;99.90;;;;;;10318829;28;20198;-78
2022/08/21 08:16:06;;;;;;;2.70;2.28;;;20.10;99.90;;;;;;10318946;28;20269;-78
2022/08/21 08:21:28;;;;;;;2.88;2.55;;;20.10;99.90;;;;;;10318417;28;20272;-81
2022/08/21 08:26:50;;;;;;;3.35;2.85;;;20.10;99.90;;;;;;10318493;28;20198;-80
2022/08/21 08:32:11;;;;;;;3.40;2.60;;;20.10;99.90;;;;;;10371240;28;20606;-81
2022/08/21 08:37:33;;;;;;;3.35;2.92;;;20.20;99.90;;;;;;10399187;28;20357;-82
2022/08/21 08:42:54;;;;;;;3.45;2.90;;;20.20;99.90;;;;;;10382943;28;20228;-82
2022/08/21 08:48:47;;;;;;;3.55;3.10;;;20.10;99.90;;;;;;10398253;28;20232;-77
2022/08/21 08:54:25;;;;;;;5.30;2.97;;;20.10;99.90;;;;;;10211604;29;20495;-80
2022/08/21 08:59:54;;;;;;;4.28;2.72;;;20.10;99.90;;;;;;10180782;29;20229;-77
2022/08/21 09:05:38;;;;;;;3.55;2.58;;;20.00;99.90;;;;;;10216037;29;20226;-78
2022/08/21 09:11:24;;;;;;;3.35;2.53;;;20.00;99.90;;;;;;10233187;29;20443;-78
2022/08/21 09:16:51;;;;;;;4.68;3.15;;;20.00;99.90;;;;;;10233124;29;20219;-79
2022/08/21 09:22:22;;;;;;;2.60;2.40;;;19.90;99.90;;;;;;10232648;29;20239;-77
2022/08/21 09:27:44;;;;;;;4.70;2.53;;;19.90;99.90;;;;;;10247321;28;20278;-78
2022/08/21 09:33:06;;;;;;;2.53;2.17;;;19.80;99.90;;;;;;10389043;28;20244;-78
2022/08/21 09:38:34;;;;;;;3.08;1.90;;;19.80;99.90;;;;;;10396201;28;20196;-78
2022/08/21 09:43:55;;;;;;;3.00;1.90;;;19.70;99.90;;;;;;10396032;28;20224;-77
2022/08/21 09:49:31;;;;;;;2.00;1.80;;;19.70;99.90;;;;;;10396174;28;20193;-77
2022/08/21 09:54:55;;;;;;;2.78;2.08;;;19.80;99.90;;;;;;10352290;28;20202;-78
2022/08/21 10:00:31;;;;;;;3.70;2.45;;;19.80;99.90;;;;;;10355024;28;20222;-80
2022/08/21 10:05:59;;;;;;;4.28;1.90;;;19.80;99.90;;;;;;10327111;28;20195;-80
2022/08/21 10:11:27;;;;;;;2.90;2.08;;;19.80;99.90;;;;;;10299688;28;20277;-77
2022/08/21 10:17:12;;;;;;;4.20;2.05;;;19.70;99.90;;;;;;10313928;28;20301;-78
2022/08/21 10:23:02;;;;;;;2.33;1.60;;;19.60;99.90;;;;;;10329116;28;20234;-80
2022/08/21 10:28:52;;;;;;;2.92;1.70;;;19.50;99.90;;;;;;10313433;28;20198;-79
2022/08/21 10:34:17;;;;;;;2.38;2.00;;;19.60;99.90;;;;;;10313952;28;20237;-78
2022/08/21 10:39:55;;;;;;;2.85;2.00;;;19.70;99.90;;;;;;10314233;28;20352;-79
2022/08/21 10:45:57;;;;;;;2.92;2.30;;;19.90;99.90;;;;;;10313538;28;20218;-79
2022/08/21 10:51:46;;;;;;;3.83;2.28;;;19.90;99.90;;;;;;10191721;29;20586;-81
2022/08/21 10:57:22;;;;;;;2.75;1.77;;;19.70;99.90;;;;;;10221940;29;20220;-79
2022/08/21 11:02:51;;;;;;;2.13;1.50;;;;;;;;;;10215691;29;20239;-78
2022/08/21 11:08:15;;;;;;;3.33;2.10;;;;;;;;;;10198710;29;20201;-81
2022/08/21 11:13:42;;;;;;;3.97;2.60;;;;;;;;;;10185397;29;20224;-77
2022/08/21 11:19:11;;;;;;;4.63;2.28;;;;;;;;;;10198053;29;20208;-76
2022/08/21 11:24:46;;;;;;;4.57;2.90;;;19.10;99.90;;;;;;10282815;28;20206;-76
2022/08/21 11:30:08;;;;;;;3.83;2.95;;;19.10;99.90;;;;;;10340684;28;20551;-77
2022/08/21 11:35:42;;;;;;;3.00;2.58;;;19.20;99.90;;;;;;10401188;28;20260;-77
2022/08/21 11:41:24;;;;;;;2.50;1.88;;;19.30;99.90;;;;;;10400946;28;20221;-76
2022/08/21 11:46:59;;;;;;;2.65;2.17;;;19.20;99.90;;;;;;10386161;28;20192;-76
2022/08/21 11:52:27;;;;;;;2.90;1.80;;;19.20;99.90;;;;;;10385391;28;20203;-77
2022/08/21 11:58:00;;;;;;;2.97;1.85;;;19.10;99.90;;;;;;10360542;28;20244;-77
2022/08/21 12:03:27;;;;;;;1.83;1.70;;;19.00;99.90;;;;;;10338300;28;20249;-81
2022/08/21 12:08:59;;;;;;;1.73;1.40;;;19.00;99.90;;;;;;10319241;28;20219;-77
2022/08/21 12:14:21;;;;;;;2.10;1.70;;;19.00;99.90;;;;;;10317929;28;20198;-78
2022/08/21 12:19:42;;;;;;;4.70;1.30;;;19.00;99.90;;;;;;10332909;28;20202;-76
2022/08/21 12:25:15;;;;;;;1.63;1.38;;;19.00;99.90;;;;;;10318174;28;20198;-77
2022/08/21 12:30:43;;;;;;;1.70;1.60;;;19.00;99.90;;;;;;10361221;28;20260;-77
2022/08/21 12:36:13;;;;;;;1.42;1.33;;;19.00;99.90;;;;;;10398889;28;20209;-76
2022/08/21 12:41:54;;;;;;;3.72;1.63;;;19.00;99.90;;;;;;10398468;28;20225;-77
2022/08/21 12:47:34;;;;;;;1.80;1.30;;;19.00;99.90;;;;;;10398131;28;20431;-78
2022/08/21 12:53:23;;;;;;;3.03;1.67;;;19.00;99.90;;;;;;10373593;28;20307;-77
2022/08/21 12:59:04;;;;;;;3.80;1.75;;;18.90;99.90;;;;;;10331855;28;20405;-76
2022/08/21 13:04:41;;;;;;;2.00;1.58;;;19.00;99.90;;;;;;10316407;28;20218;-76
2022/08/21 13:10:16;;;;;;;1.60;1.50;;;19.00;99.90;;;;;;10316659;28;20489;-77
2022/08/21 13:15:39;;;;;;;2.42;1.42;;;19.00;99.90;;;;;;10316098;28;20199;-77
2022/08/21 13:21:19;;;;;;;1.60;1.50;;;19.00;99.90;;;;;;10314910;28;20300;-76
2022/08/21 13:26:40;;;;;;;3.15;1.92;;;19.20;99.90;;;;;;10314402;28;20203;-76
2022/08/21 13:32:06;;;;;;;5.15;1.42;;;19.20;99.90;;;;;;10362313;28;20240;-77
2022/08/21 13:37:28;;;;;;;2.10;1.40;;;19.40;99.90;;;;;;10396597;28;20385;-77
2022/08/21 13:42:50;;;;;;;2.95;1.63;;;19.40;99.90;;;;;;10381464;28;20225;-76
2022/08/21 13:48:12;;;;;;;3.17;1.48;;;19.50;99.90;;;;;;10396301;28;20441;-76
2022/08/21 13:53:35;;;;;;;3.42;1.70;;;19.60;99.90;;;;;;10363446;28;20202;-77
2022/08/21 13:58:59;;;;;;;2.65;1.33;;;19.60;99.90;;;;;;10355138;28;20379;-76
2022/08/21 14:04:26;;;;;;;1.35;1.25;;;19.50;99.90;;;;;;10340087;28;20246;-77
2022/08/21 14:09:48;;;;;;;3.08;1.52;;;19.40;99.90;;;;;;10313972;28;20301;-77
2022/08/21 14:15:13;;;;;;;4.43;1.58;;;19.40;99.90;;;;;;10314728;28;20548;-78
2022/08/21 14:20:35;;;;;;;4.10;1.38;;;19.20;99.90;;;;;;10329684;28;20218;-77
2022/08/21 14:26:01;;;;;;;4.00;1.55;;;19.20;99.90;;;;;;10329666;28;20206;-77
2022/08/21 14:31:29;;;;;;;4.05;1.52;;;19.20;99.90;;;;;;10339662;28;20532;-77
2022/08/21 14:36:51;;;;;;;4.53;1.92;;;19.20;99.90;;;;;;10380611;28;20247;-77
2022/08/21 14:42:13;;;;;;;5.90;2.33;;;19.20;99.90;;;;;;10386784;28;20224;-76
2022/08/21 14:47:34;;;;;;;4.47;2.20;;;19.30;99.90;;;;;;10371544;28;20229;-76
2022/08/21 14:52:55;;;;;;;4.20;1.63;;;19.40;99.90;;;;;;10363622;28;20208;-77
2022/08/21 14:58:17;;;;;;;3.17;1.80;;;19.50;99.90;;;;;;10361505;28;20201;-77
2022/08/21 15:03:39;;;;;;;2.38;1.60;;;19.50;99.90;;;;;;10321305;28;20302;-77
2022/08/21 15:09:03;;;;;;;3.42;1.80;;;19.60;99.90;;;;;;10321205;28;20202;-78
2022/08/21 15:14:28;;;;;;;3.70;2.08;;;19.60;99.90;;;;;;10319951;28;20198;-78
2022/08/21 15:19:49;;;;;;;4.68;1.63;;;19.50;99.90;;;;;;10320892;28;20241;-77
2022/08/21 15:25:10;;;;;;;4.70;1.90;;;19.40;99.90;;;;;;10335510;28;20206;-81
2022/08/21 15:30:33;;;;;;;3.05;1.70;;;19.20;99.90;;;;;;10346038;28;20233;-78
2022/08/21 15:35:54;;;;;;;4.20;1.70;;;19.10;99.90;;;;;;10401152;28;20189;-77
2022/08/21 15:41:17;;;;;;;2.20;1.75;;;19.00;99.90;;;;;;10400567;28;20239;-78
2022/08/21 15:46:39;;;;;;;4.63;1.83;;;18.80;99.90;;;;;;10386108;28;20189;-76
2022/08/21 15:52:00;;;;;;;5.45;2.55;;;18.80;99.90;;;;;;10390285;28;20210;-77
2022/08/21 15:57:24;;;;;;;4.45;2.83;;;18.80;99.90;;;;;;10352201;28;20461;-79
2022/08/21 16:02:47;;;;;;;3.97;2.30;;;18.80;99.90;;;;;;10357223;28;20358;-77
2022/08/21 16:08:10;;;;;;;5.95;2.25;;;18.70;99.90;;;;;;10318742;28;20194;-77
2022/08/21 16:13:39;;;;;;;2.58;2.00;;;18.70;99.90;;;;;;10319006;28;20429;-77
2022/08/21 16:19:03;;;;;;;2.95;1.75;;;18.80;99.90;;;;;;10317700;28;20505;-79
2022/08/21 16:24:24;;;;;;;1.33;1.20;;;18.70;99.90;;;;;;10318129;28;20224;-76
2022/08/21 16:29:46;;;;;;;3.78;1.67;;;18.70;99.90;;;;;;10346842;28;20492;-79
2022/08/21 16:35:12;;;;;;;4.05;2.17;;;18.70;99.90;;;;;;10381134;28;20228;-77
2022/08/21 16:40:35;;;;;;;3.08;2.17;;;18.70;99.90;;;;;;10398092;28;20272;-77
2022/08/21 16:45:57;;;;;;;2.95;1.50;;;18.70;99.90;;;;;;10398495;28;20208;-77
2022/08/21 16:51:18;;;;;;;2.85;1.58;;;18.70;99.90;;;;;;10398017;28;20247;-78
2022/08/21 16:56:39;;;;;;;2.55;1.45;;;18.60;99.90;;;;;;10342234;28;20232;-77
2022/08/21 17:02:02;;;;;;;3.00;1.23;;;18.50;99.90;;;;;;10356471;28;20301;-79
2022/08/21 17:07:24;;;;;;;2.35;1.60;;;18.40;99.90;;;;;;10316932;28;20194;-78
2022/08/21 17:12:54;;;;;;;2.83;1.40;;;18.40;99.90;;;;;;10301423;28;20205;-77
2022/08/21 17:18:19;;;;;;;3.38;1.75;;;18.40;99.90;;;;;;10315556;28;20202;-78
2022/08/21 17:23:41;;;;;;;6.93;1.80;;;18.30;99.90;;;;;;10301306;28;20222;-78
2022/08/21 17:29:08;;;;;;;4.38;1.80;;;18.30;99.90;;;;;;10333162;28;20399;-76
2022/08/21 17:34:29;;;;;;;4.93;2.53;;;18.30;99.90;;;;;;10354851;28;20236;-80
2022/08/21 17:39:51;;;;;;;6.05;2.72;;;18.20;99.90;;;;;;10355780;28;20224;-78
2022/08/21 17:45:16;;;;;;;6.05;2.45;;;18.40;99.90;;;;;;10355574;28;20585;-78
2022/08/21 17:50:37;;;;;;;5.20;2.38;;;18.30;99.90;;;;;;10354350;28;20193;-76
2022/08/21 17:55:59;;;;;;;4.00;1.80;;;18.30;99.90;;;;;;10304832;28;20214;-77
2022/08/21 18:01:20;;;;;;;4.28;1.60;;;;;;;;;;10300306;28;20233;-77
2022/08/21 18:06:43;;;;;;;3.80;1.92;;;18.10;99.90;;;;;;10266377;28;20389;-79
2022/08/21 18:12:04;;;;;;;6.18;2.08;;;18.20;99.90;;;;;;10275029;28;20266;-78
2022/08/21 18:17:28;;;;;;;2.97;1.98;;;18.30;99.90;;;;;;10281940;28;20191;-78
2022/08/21 18:22:50;;;;;;;6.70;2.72;;;18.20;99.90;;;;;;10282610;28;20226;-77
2022/08/21 18:28:11;;;;;;;4.72;2.30;;;18.20;99.90;;;;;;10254874;29;20250;-79
2022/08/21 18:33:33;;;;;;;2.67;1.95;;;18.20;99.90;;;;;;10388199;28;20410;-77
2022/08/21 18:38:54;;;;;;;3.38;1.58;;;18.20;99.90;;;;;;10385426;28;20495;-77
2022/08/21 18:44:23;;;;;;;2.28;1.65;;;18.20;99.90;;;;;;10372491;28;20252;-78
2022/08/21 18:49:44;;;;;;;3.05;2.10;;;18.20;99.90;;;;;;10385338;28;20276;-77
2022/08/21 18:55:07;;;;;;;4.85;2.70;;;18.10;99.90;;;;;;10357254;28;20202;-77
2022/08/21 19:00:32;;;;;;;6.88;3.33;;;18.10;99.90;;;;;;10361874;28;20482;-76
2022/08/21 19:05:54;;;;;;;6.57;3.03;;;18.10;99.90;;;;;;10306298;28;20245;-77
2022/08/21 19:11:16;;;;;;;5.72;2.80;;;18.20;99.90;;;;;;10306477;28;20201;-76
2022/08/21 19:16:41;;;;;;;6.50;2.35;;;18.20;99.90;;;;;;10320060;28;20261;-77
2022/08/21 19:22:02;;;;;;;6.50;1.83;;;18.20;99.90;;;;;;10320627;28;20222;-76
2022/08/21 19:27:24;;;;;;;2.20;1.60;;;18.10;99.90;;;;;;10335129;28;20209;-77
2022/08/21 19:32:48;;;;;;;2.47;1.58;;;18.10;99.90;;;;;;10376467;28;20232;-78
2022/08/21 19:38:09;;;;;;;5.70;1.92;;;18.00;99.90;;;;;;10386333;28;20260;-77
2022/08/21 19:43:34;;;;;;;4.57;1.98;;;18.00;99.90;;;;;;10386436;28;20220;-77
2022/08/21 19:48:57;;;;;;;2.13;1.60;;;18.00;99.90;;;;;;10369352;28;20201;-77
2022/08/21 19:54:25;;;;;;;2.83;1.42;;;18.00;99.90;;;;;;10344031;28;20202;-76
2022/08/21 19:59:46;;;;;;;4.10;1.60;;;18.00;99.90;;;;;;10344917;28;20571;-77
2022/08/21 20:05:08;;;;;;;1.92;1.65;;;18.00;99.90;;;;;;10336875;28;20396;-77
2022/08/21 20:10:29;;;;;;;2.03;1.30;;;18.00;99.90;;;;;;10334152;28;20199;-76
2022/08/21 20:15:52;;;;;;;2.33;1.67;;;18.00;99.90;;;;;;10318582;28;20217;-77
2022/08/21 20:21:14;;;;;;;3.53;2.20;;;17.90;99.90;;;;;;10317569;28;20385;-76
2022/08/21 20:26:36;;;;;;;2.63;1.65;;;18.00;99.90;;;;;;10318095;28;20195;-76
2022/08/21 20:31:58;;;;;;;2.85;1.67;;;18.00;99.90;;;;;;10380783;28;20248;-77
2022/08/21 20:37:20;;;;;;;2.45;1.50;;;18.00;99.90;;;;;;10397770;28;20268;-76
2022/08/21 20:42:46;;;;;;;5.03;1.75;;;18.00;99.90;;;;;;10398592;28;20573;-76
2022/08/21 20:48:10;;;;;;;2.97;1.73;;;18.00;99.90;;;;;;10398299;28;20197;-76
2022/08/21 20:53:51;;;;;;;3.40;1.70;;;17.90;99.90;;;;;;10348261;28;20210;-76
2022/08/21 20:59:20;;;;;;;5.65;1.95;;;17.90;99.90;;;;;;10357037;28;20197;-78
2022/08/21 21:04:53;;;;;;;3.58;2.00;;;17.80;99.90;;;;;;10338016;28;20227;-76
2022/08/21 21:10:29;;;;;;;3.58;1.98;;;17.80;99.90;;;;;;10332016;28;20205;-77
2022/08/21 21:15:54;;;;;;;4.28;1.58;;;17.80;99.90;;;;;;10315368;28;20190;-77
2022/08/21 21:21:30;;;;;;;2.88;1.95;;;17.80;99.90;;;;;;10331172;28;20222;-77
2022/08/21 21:27:06;;;;;;;3.28;1.92;;;17.80;99.90;;;;;;10301442;28;20206;-76
2022/08/21 21:32:28;;;;;;;2.97;2.00;;;17.80;99.90;;;;;;10373390;28;20470;-76
2022/08/21 21:37:57;;;;;;;2.78;1.88;;;17.80;99.90;;;;;;10381989;28;20197;-76
2022/08/21 21:43:28;;;;;;;3.58;1.60;;;17.80;99.90;;;;;;10381503;28;20225;-77
2022/08/21 21:48:58;;;;;;;3.83;1.75;;;17.80;99.90;;;;;;10396125;28;20193;-77
2022/08/21 21:54:25;;;;;;;3.70;1.77;;;17.70;99.90;;;;;;10339460;28;20269;-77
2022/08/21 21:59:50;;;;;;;2.67;1.20;;;17.70;99.90;;;;;;10355189;28;20193;-76
2022/08/21 22:05:31;;;;;;;1.50;1.33;;;17.80;99.90;;;;;;10302544;28;20230;-76
2022/08/21 22:10:57;;;;;;;2.38;1.50;;;;;;;;;;10314847;28;20503;-76
2022/08/21 22:16:22;;;;;;;4.03;1.48;;;;;;;;;;10315038;28;20247;-76
2022/08/21 22:21:51;;;;;;;3.55;1.70;;;;;;;;;;10313562;28;20226;-76
2022/08/21 22:27:15;;;;;;;2.50;1.70;;;;;;;;;;10314614;28;20401;-77
2022/08/21 22:32:40;;;;;;;1.90;1.60;;;;;;;;;;10374798;28;20249;-77
2022/08/21 22:38:15;;;;;;;4.25;1.90;;;;;;;;;;10378033;28;20209;-76
2022/08/21 22:43:51;;;;;;;4.10;2.20;;;17.70;99.90;;;;;;10395165;28;20229;-76
2022/08/21 22:49:41;;;;;;;3.30;2.03;;;17.60;99.90;;;;;;10395337;28;20484;-76
2022/08/21 22:55:24;;;;;;;2.67;1.85;;;17.60;99.90;;;;;;10335838;28;20221;-76
2022/08/21 23:01:05;;;;;;;2.83;1.55;;;17.60;99.90;;;;;;10342300;28;20268;-80
2022/08/21 23:06:33;;;;;;;3.13;2.00;;;17.60;99.90;;;;;;10336442;28;20195;-78
2022/08/21 23:11:57;;;;;;;3.22;1.80;;;17.60;99.90;;;;;;10320197;28;20226;-78
2022/08/21 23:17:46;;;;;;;4.43;2.22;;;17.60;99.90;;;;;;10321076;28;20194;-77
2022/08/21 23:23:24;;;;;;;2.03;1.83;;;17.50;99.90;;;;;;10320401;28;20229;-78
2022/08/21 23:29:04;;;;;;;3.28;1.73;;;;;;;;;;10320640;28;20354;-78
2022/08/21 23:34:28;;;;;;;3.08;1.40;;;;;;;;;;10305572;28;20406;-77
2022/08/21 23:40:01;;;;;;;2.60;1.70;;;;;;;;;;10320028;28;20198;-78
2022/08/21 23:45:38;;;;;;;2.38;1.40;;;;;;;;;;10320171;28;20233;-77
2022/08/21 23:51:01;;;;;;;1.73;1.45;;;;;;;;;;10318650;28;20206;-77
2022/08/21 23:56:35;;;;;;;3.67;2.00;;;;;;;;;;10343957;28;20493;-77
